Time;durP1;ratioP1;P1;durP2;ratioP2;P2;SDS_P1;SDS_P2;PMS_P1;PMS_P2;Temp;Humidity;BMP_temperature;BMP_pressure;BME280_temperature;BME280_humidity;BME280_pressure;Samples;Min_cycle;Max_cycle;Signal;HPM_P1;HPM_P2
2021/12/04 00:02:05;;;;;;;2.15;1.00;;;;;;;18.81;35.77;97669.91;5155671;27;20118;-64
2021/12/04 00:04:36;;;;;;;1.85;1.00;;;;;;;18.80;36.11;97667.47;5155665;27;20037;-65
2021/12/04 00:07:03;;;;;;;;;;;;;;;18.74;36.20;97661.94;5155510;27;20042;-65
2021/12/04 00:09:29;;;;;;;1.10;0.63;;;;;;;18.78;36.11;97665.00;5135274;27;19911;-63
2021/12/04 00:12:01;;;;;;;2.00;0.90;;;;;;;18.81;35.89;97664.56;5155891;27;20039;-64
2021/12/04 00:14:27;;;;;;;2.38;1.20;;;;;;;18.83;35.80;97667.00;5155809;27;20034;-64
2021/12/04 00:16:54;;;;;;;1.33;0.95;;;;;;;18.83;35.76;97649.09;5155400;27;20553;-64
2021/12/04 00:19:20;;;;;;;1.63;1.00;;;;;;;18.86;35.79;97669.25;5154458;27;20531;-64
2021/12/04 00:21:45;;;;;;;1.25;0.93;;;;;;;18.88;35.64;97659.97;5155431;27;20031;-64
2021/12/04 00:24:11;;;;;;;1.70;1.00;;;;;;;18.91;35.70;97667.53;5155609;27;20037;-64
2021/12/04 00:26:37;;;;;;;2.65;1.00;;;;;;;18.93;35.56;97656.63;5146721;27;20027;-67
2021/12/04 00:29:04;;;;;;;1.42;1.15;;;;;;;19.02;35.46;97665.22;5134859;27;20114;-60
2021/12/04 00:31:30;;;;;;;1.38;1.00;;;;;;;19.06;35.14;97653.84;5134989;27;20034;-59
2021/12/04 00:33:56;;;;;;;3.55;0.95;;;;;;;19.11;35.25;97658.53;5151686;27;20485;-62
2021/12/04 00:49:37;;;;;;;0.80;0.70;;;;;;;19.16;34.35;97672.09;5155392;27;20504;-66
2021/12/04 00:52:03;;;;;;;1.20;0.82;;;;;;;19.15;33.88;97674.97;5155008;27;20034;-67
2021/12/04 00:54:29;;;;;;;1.70;0.80;;;;;;;19.15;33.82;97665.09;5155750;27;20034;-67
2021/12/04 00:56:55;;;;;;;2.85;0.88;;;;;;;19.16;33.60;97668.56;5151516;27;20541;-66
2021/12/04 00:59:21;;;;;;;1.98;0.88;;;;;;;19.19;33.62;97668.13;5148801;27;20109;-67
2021/12/04 01:01:46;;;;;;;4.93;0.85;;;;;;;19.18;33.47;97661.97;5147528;27;20109;-66
2021/12/04 01:04:16;;;;;;;1.80;1.00;;;;;;;19.17;33.08;97660.34;5138917;27;20037;-66
2021/12/04 01:06:42;;;;;;;0.98;0.70;;;;;;;19.16;33.16;97652.50;5148832;27;20138;-66
2021/12/04 01:09:10;;;;;;;0.80;0.75;;;;;;;19.13;33.20;97666.34;5153943;27;20121;-67
2021/12/04 01:11:37;;;;;;;1.88;0.80;;;;;;;19.09;32.92;97663.28;5153964;27;20084;-66
2021/12/04 01:14:03;;;;;;;9.98;0.95;;;;;;;19.06;32.82;97674.44;5154354;27;20133;-67
2021/12/04 01:16:28;;;;;;;1.67;1.00;;;;;;;19.04;32.96;97669.31;5146665;27;20031;-65
2021/12/04 01:18:54;;;;;;;3.30;1.13;;;;;;;19.03;32.88;97664.19;5133480;27;20076;-66
2021/12/04 01:21:20;;;;;;;1.45;1.05;;;;;;;19.02;32.86;97657.19;5133570;27;20031;-66
2021/12/04 01:23:46;;;;;;;1.83;0.70;;;;;;;19.00;32.76;97662.75;5133447;27;20035;-65
2021/12/04 01:26:11;;;;;;;1.15;0.85;;;;;;;18.99;32.78;97663.78;5133136;27;20038;-66
2021/12/04 01:28:37;;;;;;;1.13;0.60;;;;;;;18.99;32.70;97663.00;5133385;27;20454;-65
2021/12/04 01:31:03;;;;;;;1.70;0.77;;;;;;;18.96;32.75;97660.75;5136476;27;20121;-66
2021/12/04 01:33:28;;;;;;;1.50;1.00;;;;;;;18.97;33.06;97667.75;5136184;27;20054;-65
2021/12/04 01:35:54;;;;;;;1.95;1.13;;;;;;;18.96;32.24;97661.59;5132894;27;20041;-64
2021/12/04 01:38:21;;;;;;;1.50;0.80;;;;;;;18.96;32.52;97660.75;5132634;27;20031;-65
2021/12/04 01:40:47;;;;;;;2.08;1.00;;;;;;;18.95;32.40;97664.47;5133174;27;20045;-65
2021/12/04 01:43:12;;;;;;;6.38;0.93;;;;;;;18.94;32.38;97673.50;5133077;27;20043;-65
2021/12/04 01:45:38;;;;;;;1.70;0.80;;;;;;;18.94;32.54;97662.78;5147554;27;20133;-65
2021/12/04 01:48:04;;;;;;;1.98;0.98;;;;;;;18.94;32.32;97676.19;5144720;27;20056;-67
2021/12/04 01:50:31;;;;;;;1.17;1.08;;;;;;;18.91;32.33;97667.53;5154124;27;20043;-67
2021/12/04 01:52:59;;;;;;;1.20;0.80;;;;;;;18.90;32.34;97673.94;5153779;27;20038;-67
2021/12/04 01:55:28;;;;;;;2.60;0.80;;;;;;;18.89;32.25;97682.22;5153937;27;20107;-67
2021/12/04 01:57:54;;;;;;;2.60;0.52;;;;;;;18.89;32.26;97676.84;5145587;27;20382;-67
2021/12/04 02:00:21;;;;;;;2.05;1.05;;;;;;;18.88;32.17;97669.84;5154337;27;20050;-67
2021/12/04 02:02:46;;;;;;;2.45;1.00;;;;;;;18.89;32.09;97677.69;5154270;27;20027;-66
2021/12/04 02:05:12;;;;;;;1.55;1.00;;;;;;;18.89;32.18;97683.06;5154001;27;20038;-66
2021/12/04 02:07:38;;;;;;;2.08;1.00;;;;;;;18.92;32.26;97666.50;5154189;27;20130;-66
2021/12/04 02:10:05;;;;;;;1.73;0.90;;;;;;;18.94;32.16;97673.50;5154188;27;20079;-66
2021/12/04 02:12:31;;;;;;;1.30;0.82;;;;;;;18.94;31.97;97677.06;5153804;27;20035;-66
2021/12/04 02:14:57;;;;;;;1.58;1.08;;;;;;;18.94;31.91;97681.56;5153828;27;20030;-66
2021/12/04 02:17:22;;;;;;;1.65;0.95;;;;;;;18.92;31.79;97679.91;5154052;27;20489;-66
2021/12/04 02:19:48;;;;;;;2.22;1.10;;;;;;;18.93;31.77;97688.78;5153706;27;20405;-66
2021/12/04 02:22:14;;;;;;;2.95;1.00;;;;;;;18.92;32.21;97679.91;5153630;27;20039;-67
2021/12/04 02:24:40;;;;;;;1.60;0.82;;;;;;;18.94;31.87;97678.88;5153817;27;20113;-67
2021/12/04 02:27:05;;;;;;;2.15;1.05;;;;;;;18.93;31.84;97688.78;5153784;27;20503;-67
2021/12/04 02:29:31;;;;;;;2.08;1.05;;;;;;;18.92;32.26;97687.13;5153771;27;20027;-67
2021/12/04 02:32:01;;;;;;;1.38;0.73;;;;;;;18.92;32.20;97684.47;5135273;27;20129;-67
2021/12/04 02:34:29;;;;;;;0.95;0.60;;;;;;;18.92;32.28;97687.13;5153943;27;20057;-67
2021/12/04 02:36:57;;;;;;;1.65;1.05;;;;;;;18.91;31.93;97688.97;5153662;27;20517;-67
2021/12/04 02:39:24;;;;;;;1.25;0.73;;;;;;;18.92;31.95;97698.66;5153588;27;20100;-67
2021/12/04 02:41:51;;;;;;;1.63;0.90;;;;;;;18.94;31.98;97694.94;5154284;27;20118;-66
2021/12/04 02:44:16;;;;;;;1.17;0.85;;;;;;;18.95;32.04;97697.47;5157784;27;20400;-67
2021/12/04 02:46:42;;;;;;;1.67;0.93;;;;;;;18.96;31.90;97703.63;5157419;27;20026;-67
2021/12/04 02:49:09;;;;;;;1.30;0.80;;;;;;;18.96;31.77;97695.59;5157591;27;20062;-67
2021/12/04 02:51:35;;;;;;;1.35;0.70;;;;;;;18.94;32.10;97700.31;5158130;27;20038;-67
2021/12/04 02:54:01;;;;;;;1.33;0.90;;;;;;;18.91;31.91;97704.25;5157438;27;20052;-67
2021/12/04 02:56:26;;;;;;;1.73;0.90;;;;;;;18.94;31.86;97705.66;5157062;27;20042;-67
2021/12/04 02:58:56;;;;;;;0.95;0.63;;;;;;;18.94;31.76;97697.63;5156970;27;20061;-67
2021/12/04 03:01:22;;;;;;;2.53;1.00;;;;;;;18.91;31.72;97701.56;5156844;27;20085;-67
2021/12/04 03:03:47;;;;;;;1.33;0.80;;;;;;;18.91;31.81;97697.03;5157235;27;20230;-67
2021/12/04 03:06:13;;;;;;;1.45;0.93;;;;;;;18.91;32.01;97702.38;5157385;27;20050;-67
2021/12/04 03:08:39;;;;;;;2.30;0.77;;;;;;;18.94;31.84;97711.03;5157394;27;20490;-67
2021/12/04 03:11:04;;;;;;;2.10;1.10;;;;;;;18.95;31.73;97707.34;5156972;27;20064;-67
2021/12/04 03:13:30;;;;;;;1.27;1.02;;;;;;;18.95;31.56;97723.41;5156885;27;20071;-67
2021/12/04 03:15:58;;;;;;;1.30;0.85;;;;;;;18.95;31.63;97713.53;5157111;27;20122;-67
2021/12/04 03:18:24;;;;;;;1.00;0.80;;;;;;;18.95;31.84;97712.69;5156524;27;20037;-67
2021/12/04 03:20:52;;;;;;;2.03;1.00;;;;;;;18.94;31.67;97717.25;5156651;27;20023;-68
2021/12/04 03:23:26;;;;;;;1.77;1.13;;;;;;;18.95;31.59;97710.03;5156879;27;20026;-68
2021/12/04 03:25:55;;;;;;;1.42;0.95;;;;;;;18.94;31.59;97716.38;5156861;27;20121;-68
2021/12/04 03:28:20;;;;;;;1.20;0.90;;;;;;;18.95;31.38;97704.66;5156526;27;20026;-67
2021/12/04 03:30:52;;;;;;;1.40;0.93;;;;;;;18.94;31.50;97705.66;5156551;27;20080;-67
2021/12/04 03:41:13;;;;;;;1.20;0.90;;;;;;;18.91;31.83;97713.09;5156615;27;20033;-67
2021/12/04 03:43:39;;;;;;;2.42;0.75;;;;;;;18.90;31.80;97708.78;5156708;27;20106;-67
2021/12/04 03:46:06;;;;;;;1.48;1.02;;;;;;;18.90;31.60;97718.69;5156221;27;20026;-67
2021/12/04 03:51:00;;;;;;;1.40;0.90;;;;;;;18.92;31.48;97708.59;5157109;27;20031;-67
2021/12/04 03:53:25;;;;;;;1.65;0.90;;;;;;;18.93;31.45;97712.91;5155824;27;20030;-67
2021/12/04 03:55:51;;;;;;;0.95;0.50;;;;;;;18.94;31.43;97716.38;5156327;27;20062;-67
2021/12/04 03:58:21;;;;;;;1.92;1.30;;;;;;;18.94;31.19;97711.03;5156030;27;20027;-67
2021/12/04 04:00:47;;;;;;;2.95;1.05;;;;;;;18.94;31.26;97706.53;5155892;27;20032;-67
2021/12/04 04:03:13;;;;;;;2.53;1.27;;;;;;;18.97;31.17;97715.97;5135260;27;20513;-66
2021/12/04 04:05:38;;;;;;;2.03;0.75;;;;;;;18.99;31.18;97709.34;5135835;27;20030;-66
2021/12/04 04:08:04;;;;;;;1.50;0.82;;;;;;;19.02;31.07;97708.91;5135226;27;20478;-67
2021/12/04 04:10:30;;;;;;;0.95;0.77;;;;;;;19.04;31.17;97719.44;5135690;27;20039;-67
2021/12/04 04:12:55;;;;;;;2.40;1.00;;;;;;;19.04;31.14;97722.94;5135058;27;20466;-66
2021/12/04 04:15:22;;;;;;;2.22;1.40;;;;;;;19.05;30.96;97721.06;5135500;27;20035;-66
2021/12/04 04:17:48;;;;;;;3.47;1.23;;;;;;;19.07;31.01;97724.34;5134910;27;20500;-66
2021/12/04 04:20:17;;;;;;;1.00;0.75;;;;;;;19.10;31.08;97728.47;5135539;27;20042;-66
2021/12/04 04:22:43;;;;;;;1.30;0.80;;;;;;;19.12;30.77;97734.38;5134755;27;20046;-66
2021/12/04 04:25:09;;;;;;;1.85;1.35;;;;;;;19.13;31.03;97739.53;5135153;27;20034;-66
2021/12/04 04:27:35;;;;;;;1.55;0.88;;;;;;;19.12;31.10;97732.53;5134817;27;20105;-67
2021/12/04 04:30:03;;;;;;;2.08;1.00;;;;;;;19.13;30.85;97736.88;5134758;27;20035;-66
2021/12/04 04:32:30;;;;;;;1.45;1.02;;;;;;;19.13;30.97;97742.22;5134625;27;20442;-66
2021/12/04 04:34:57;;;;;;;1.23;0.80;;;;;;;19.15;31.22;97750.88;5134820;27;20038;-67
2021/12/04 04:37:33;;;;;;;1.20;0.90;;;;;;;19.15;31.09;97734.78;5134174;27;20031;-67
2021/12/04 04:59:10;;;;;;;1.00;0.80;;;;;;;19.15;31.10;97755.41;5144788;27;20083;-67
2021/12/04 05:15:13;;;;;;;2.13;0.90;;;;;;;19.02;31.02;97770.56;5155244;27;20083;-67
2021/12/04 05:20:12;;;;;;;1.48;1.00;;;;;;;19.03;31.11;97779.44;5154505;27;20054;-67
2021/12/04 05:22:38;;;;;;;1.80;0.82;;;;;;;19.01;31.08;97781.50;5154260;27;20026;-66
2021/12/04 05:25:04;;;;;;;1.13;0.70;;;;;;;19.01;30.89;97787.69;5154480;27;20041;-66
2021/12/04 05:27:29;;;;;;;1.42;1.00;;;;;;;19.02;30.95;97789.31;5154571;27;20062;-67
2021/12/04 05:29:55;;;;;;;1.48;1.00;;;;;;;19.01;31.04;97785.00;5154311;27;20035;-67
2021/12/04 05:32:20;;;;;;;1.45;0.90;;;;;;;19.01;31.08;97789.56;5154060;27;20113;-66
2021/12/04 05:34:45;;;;;;;1.02;0.80;;;;;;;19.01;31.05;97792.25;5154287;27;20037;-66
2021/12/04 05:37:11;;;;;;;1.13;0.80;;;;;;;19.01;30.95;97786.88;5154207;27;20443;-66
2021/12/04 05:39:37;;;;;;;1.23;0.75;;;;;;;19.03;30.80;97795.53;5154211;27;20049;-67
2021/12/04 05:42:03;;;;;;;3.47;1.70;;;;;;;19.04;30.71;97803.34;5153837;27;20031;-66
2021/12/04 05:44:30;;;;;;;7.18;1.08;;;;;;;19.06;30.87;97795.06;5154351;27;20031;-67
2021/12/04 05:47:03;;;;;;;2.70;0.93;;;;;;;19.04;30.92;97792.63;5153675;27;20026;-66
2021/12/04 05:49:35;;;;;;;1.08;0.95;;;;;;;19.05;30.79;97798.78;5153888;27;20508;-66
2021/12/04 05:52:51;;;;;;;1.52;0.70;;;;;;;19.06;30.92;97795.06;5153761;27;20511;-65
2021/12/04 05:57:33;;;;;;;1.85;0.90;;;;;;;19.06;30.64;97813.81;5154052;27;20481;-67
2021/12/04 05:59:58;;;;;;;1.13;0.85;;;;;;;19.04;30.58;97816.75;5153950;27;20118;-66
2021/12/04 06:02:24;;;;;;;2.00;0.68;;;;;;;19.04;30.53;97816.75;5153733;27;20033;-66
2021/12/04 06:04:49;;;;;;;1.98;0.90;;;;;;;19.05;30.54;97821.06;5150926;27;20027;-66
2021/12/04 06:07:15;;;;;;;3.42;1.08;;;;;;;19.05;30.43;97818.38;5133538;28;20023;-67
2021/12/04 06:09:41;;;;;;;1.02;0.90;;;;;;;19.04;30.68;97830.13;5133214;28;20072;-67
2021/12/04 06:12:08;;;;;;;2.00;0.95;;;;;;;19.05;30.60;97815.69;5133296;28;20031;-68
2021/12/04 06:14:34;;;;;;;1.45;0.80;;;;;;;19.07;30.60;97823.50;5133073;28;20027;-68
2021/12/04 06:17:00;;;;;;;2.03;0.90;;;;;;;19.09;30.49;97836.72;5133843;27;20023;-68
2021/12/04 06:22:37;;;;;;;1.15;0.80;;;;;;;19.08;30.52;97837.75;5137982;27;20042;-68
2021/12/04 06:24:55;;;;;;;1.60;0.80;;;;;;;19.06;30.79;97843.31;5158173;27;20030;-68
2021/12/04 06:27:20;;;;;;;0.70;0.57;;;;;;;19.07;30.98;97847.63;5157809;27;20027;-68
2021/12/04 06:29:46;;;;;;;1.88;1.02;;;;;;;19.08;30.78;97846.59;5157904;27;20031;-66
2021/12/04 06:32:11;;;;;;;2.05;1.10;;;;;;;19.10;30.72;97857.94;5156199;27;20485;-66
2021/12/04 06:34:37;;;;;;;2.15;0.90;;;;;;;19.10;30.78;97862.50;5157727;27;20029;-66
2021/12/04 06:37:02;;;;;;;2.38;0.93;;;;;;;19.12;30.80;97855.84;5157848;27;20060;-67
2021/12/04 06:39:28;;;;;;;2.00;0.90;;;;;;;19.12;30.65;97855.84;5157699;27;20031;-67
2021/12/04 06:41:53;;;;;;;1.83;0.93;;;;;;;19.13;30.50;97873.59;5157411;27;20030;-66
2021/12/04 06:44:19;;;;;;;1.33;0.85;;;;;;;19.15;30.51;97873.34;5157753;27;20389;-67
2021/12/04 06:46:44;;;;;;;1.80;1.10;;;;;;;19.15;30.47;97878.72;5157029;27;20023;-67
2021/12/04 06:49:55;;;;;;;1.45;0.90;;;;;;;19.18;30.52;97876.44;5157535;27;20041;-67
2021/12/04 06:52:02;;;;;;;1.23;0.85;;;;;;;19.19;30.37;97872.69;5148436;27;20034;-66
2021/12/04 06:54:39;;;;;;;1.55;1.02;;;;;;;19.21;30.44;97884.03;5157543;27;20030;-66
2021/12/04 06:57:09;;;;;;;1.70;0.95;;;;;;;19.26;30.53;97895.97;5157246;27;20071;-66
2021/12/04 06:59:37;;;;;;;1.02;0.90;;;;;;;19.25;30.40;97881.75;5157255;27;20031;-66
2021/12/04 07:02:02;;;;;;;2.97;0.93;;;;;;;19.29;30.28;97892.88;5157357;27;20397;-66
2021/12/04 07:04:35;;;;;;;1.60;0.90;;;;;;;19.29;30.32;97898.22;5157583;27;20060;-66
2021/12/04 07:07:05;;;;;;;3.67;1.00;;;;;;;19.30;30.47;97903.34;5152547;27;20493;-66
2021/12/04 07:09:32;;;;;;;1.75;1.00;;;;;;;19.34;30.38;97914.47;5136328;27;20458;-66
2021/12/04 07:11:59;;;;;;;1.88;1.10;;;;;;;19.35;30.18;97916.94;5136598;27;20110;-66
2021/12/04 07:14:26;;;;;;;1.27;0.90;;;;;;;19.39;30.14;97927.25;5136293;27;20030;-66
2021/12/04 07:16:51;;;;;;;1.00;0.60;;;;;;;19.40;30.34;97926.22;5136523;27;20027;-66
2021/12/04 07:19:17;;;;;;;2.67;0.93;;;;;;;19.40;30.15;97932.38;5136172;27;20063;-68
2021/12/04 07:21:45;;;;;;;2.47;0.82;;;;;;;19.44;30.18;97935.44;5136224;27;20102;-66
2021/12/04 07:24:11;;;;;;;1.77;0.80;;;;;;;19.44;30.09;97944.31;5136086;27;20470;-66
2021/12/04 07:26:37;;;;;;;0.80;0.70;;;;;;;19.47;30.50;97935.84;5136039;27;20100;-66
2021/12/04 07:29:03;;;;;;;1.58;0.80;;;;;;;19.51;30.35;97947.75;5135471;27;20027;-66
2021/12/04 07:31:29;;;;;;;1.55;0.93;;;;;;;19.54;30.23;97968.00;5136376;27;20059;-66
2021/12/04 07:33:55;;;;;;;1.23;0.70;;;;;;;19.57;30.34;97969.41;5135934;27;20027;-65
2021/12/04 07:36:22;;;;;;;1.58;1.00;;;;;;;19.58;30.26;97973.72;5135895;27;20031;-65
2021/12/04 07:38:48;;;;;;;7.18;1.00;;;;;;;19.62;30.51;97966.91;5135293;27;20083;-65
2021/12/04 07:41:14;;;;;;;0.60;0.57;;;;;;;19.72;30.87;97983.31;5136080;27;20038;-65
2021/12/04 07:43:40;;;;;;;1.30;0.50;;;;;;;19.81;31.04;97990.06;5135569;27;20031;-66
2021/12/04 07:46:05;;;;;;;0.82;0.50;;;;;;;19.91;31.24;98007.56;5135714;27;20027;-66
2021/12/04 07:48:31;;;;;;;1.63;0.50;;;;;;;19.95;31.03;97995.34;5135206;27;20106;-65
2021/12/04 07:50:56;;;;;;;1.10;0.60;;;;;;;20.01;31.24;98005.22;5135626;27;20114;-65
2021/12/04 07:53:22;;;;;;;0.63;0.40;;;;;;;20.03;30.57;98045.25;5135892;27;20030;-67
2021/12/04 07:55:48;;;;;;;2.25;0.40;;;;;;;20.04;30.62;98030.78;5135356;27;20526;-67
2021/12/04 07:58:14;;;;;;;1.05;0.55;;;;;;;20.08;30.74;98032.00;5139519;27;20029;-67
2021/12/04 08:00:40;;;;;;;0.75;0.50;;;;;;;20.10;30.62;98044.16;5156112;27;20114;-67
2021/12/04 08:03:06;;;;;;;1.35;0.50;;;;;;;20.09;30.28;98053.25;5156513;27;20478;-67
2021/12/04 08:05:31;;;;;;;0.82;0.43;;;;;;;20.09;30.08;98052.44;5156145;27;20034;-66
2021/12/04 08:07:57;;;;;;;2.72;0.50;;;;;;;20.08;30.04;98050.78;5155822;27;20030;-66
2021/12/04 08:10:23;;;;;;;1.23;0.60;;;;;;;20.09;30.27;98055.13;5156329;27;20033;-67
2021/12/04 08:12:49;;;;;;;1.05;0.63;;;;;;;20.10;29.87;98065.63;5155800;27;20082;-67
2021/12/04 08:15:17;;;;;;;1.20;0.55;;;;;;;20.07;30.36;98057.19;5155664;27;20030;-66
2021/12/04 08:17:43;;;;;;;0.80;0.50;;;;;;;20.09;30.24;98060.50;5155704;27;20485;-66
2021/12/04 08:20:11;;;;;;;1.35;0.75;;;;;;;20.08;29.92;98066.91;5156561;27;20083;-69
2021/12/04 08:22:37;;;;;;;1.23;0.77;;;;;;;20.07;29.56;98073.31;5155951;27;20068;-66
2021/12/04 08:25:04;;;;;;;1.15;0.70;;;;;;;20.05;30.04;98068.16;5155886;27;20035;-67
2021/12/04 08:27:29;;;;;;;0.90;0.50;;;;;;;20.11;30.66;98075.34;5155438;27;20031;-67
2021/12/04 08:29:55;;;;;;;1.05;0.88;;;;;;;20.17;30.70;98099.69;5156076;27;20033;-65
2021/12/04 08:32:24;;;;;;;2.15;0.70;;;;;;;20.25;31.00;98102.91;5154884;27;20118;-67
2021/12/04 08:34:51;;;;;;;0.98;0.68;;;;;;;20.33;30.87;98093.75;5155122;27;20031;-68
2021/12/04 08:37:17;;;;;;;1.48;0.50;;;;;;;20.40;31.15;98104.44;5155086;27;20019;-67
2021/12/04 08:39:43;;;;;;;1.17;0.40;;;;;;;20.42;30.96;98103.19;5135840;27;20031;-67
2021/12/04 08:42:08;;;;;;;2.08;0.70;;;;;;;20.43;30.76;98095.97;5155166;27;20027;-68
2021/12/04 08:44:34;;;;;;;0.88;0.52;;;;;;;20.47;30.87;98109.75;5155281;27;20512;-67
2021/12/04 08:46:59;;;;;;;0.80;0.60;;;;;;;20.50;30.65;98110.13;5155189;27;20439;-67
2021/12/04 08:49:26;;;;;;;0.40;0.40;;;;;;;20.52;30.93;98101.84;5155194;27;20022;-67
2021/12/04 08:51:52;;;;;;;0.90;0.60;;;;;;;20.54;30.63;98110.50;5154742;27;20026;-66
2021/12/04 08:54:17;;;;;;;1.33;0.60;;;;;;;20.57;30.75;98110.06;5155674;27;20042;-67
2021/12/04 08:56:43;;;;;;;0.88;0.60;;;;;;;20.59;30.96;98114.19;5154747;27;20535;-68
2021/12/04 08:59:08;;;;;;;1.25;0.65;;;;;;;20.61;31.00;98121.19;5155180;27;20430;-66
2021/12/04 09:01:37;;;;;;;0.88;0.45;;;;;;;20.61;31.14;98127.41;5154785;27;20034;-69
2021/12/04 09:04:24;;;;;;;0.95;0.40;;;;;;;20.64;31.46;98124.28;5154877;27;20041;-69
2021/12/04 09:06:51;;;;;;;1.35;1.02;;;;;;;20.69;31.27;98126.31;5154674;27;20019;-68
2021/12/04 09:09:18;;;;;;;0.40;0.30;;;;;;;20.72;31.29;98126.69;5155025;27;20042;-66
2021/12/04 09:11:55;;;;;;;1.00;0.60;;;;;;;20.76;31.37;98126.28;5151134;27;20540;-68
2021/12/04 09:14:25;;;;;;;0.95;0.50;;;;;;;20.80;31.62;98114.03;5154965;27;20123;-69
2021/12/04 09:16:53;;;;;;;1.63;0.57;;;;;;;20.87;31.49;98125.53;5154331;27;20031;-70
2021/12/04 09:19:19;;;;;;;0.70;0.40;;;;;;;20.91;31.20;98129.44;5154937;27;20109;-66
2021/12/04 09:21:46;;;;;;;1.80;0.50;;;;;;;20.95;31.53;98127.94;5154693;27;20038;-72
2021/12/04 09:24:17;;;;;;;2.25;0.93;;;;;;;20.98;31.29;98123.97;5139042;27;20027;-68
2021/12/04 09:26:58;;;;;;;6.53;0.70;;;;;;;20.99;30.78;98129.13;5162378;27;20026;-64
2021/12/04 09:59:12;;;;;;;1.42;0.80;;;;;;;20.96;29.91;98137.63;5154700;27;20045;-71
2021/12/04 09:59:41;;;;;;;1.35;0.60;;;;;;;20.32;29.96;98148.53;5147937;27;20445;-68
2021/12/04 10:18:33;;;;;;;2.30;0.82;;;;;;;20.22;30.21;98169.69;5153163;27;20477;-64
2021/12/04 10:21:13;;;;;;;0.70;0.50;;;;;;;20.18;30.19;98181.88;5153389;27;20031;-69
2021/12/04 10:34:50;;;;;;;4.18;0.95;;;;;;;20.09;30.68;98200.13;5153407;27;20034;-69
2021/12/04 10:37:22;;;;;;;1.38;0.70;;;;;;;20.06;30.76;98196.00;5153019;27;20049;-69
2021/12/04 10:39:48;;;;;;;2.30;0.80;;;;;;;20.04;30.90;98195.41;5153900;27;20056;-70
2021/12/04 10:42:18;;;;;;;1.48;0.75;;;;;;;20.01;31.00;98203.03;5153419;27;20034;-70
2021/12/04 10:44:51;;;;;;;4.43;0.85;;;;;;;20.00;31.08;98207.59;5153609;27;20049;-69
2021/12/04 10:47:23;;;;;;;1.90;0.75;;;;;;;19.98;31.17;98204.28;5150977;27;20117;-69
2021/12/04 10:52:57;;;;;;;3.40;0.70;;;;;;;19.77;30.59;98219.66;5153540;27;20040;-70
2021/12/04 10:58:39;;;;;;;4.47;0.90;;;;;;;18.61;31.24;98217.34;5152986;27;20035;-71
2021/12/04 11:04:07;;;;;;;2.03;1.33;;;;;;;18.07;31.93;98227.19;5155415;27;20118;-71
2021/12/04 11:34:54;;;;;;;1.95;1.00;;;;;;;16.86;32.94;98260.38;5157303;27;20052;-69
2021/12/04 11:37:44;;;;;;;0.70;0.60;;;;;;;16.76;32.75;98272.22;5156410;27;20034;-68
2021/12/04 11:42:40;;;;;;;0.73;0.60;;;;;;;16.91;32.48;98284.69;5156216;27;20030;-68
2021/12/04 11:45:22;;;;;;;2.25;1.20;;;;;;;16.95;32.19;98277.13;5156348;27;20054;-70
2021/12/04 11:47:53;;;;;;;1.35;0.65;;;;;;;16.82;32.13;98281.31;5156363;27;20061;-67
2021/12/04 11:50:22;;;;;;;1.73;0.80;;;;;;;16.71;31.77;98279.97;5156455;27;20401;-70
2021/12/04 11:52:51;;;;;;;1.75;0.75;;;;;;;16.61;31.91;98282.16;5156237;27;20122;-69
2021/12/04 11:55:20;;;;;;;1.35;0.73;;;;;;;16.49;31.33;98279.16;5156298;27;20137;-69
2021/12/04 11:57:47;;;;;;;0.95;0.80;;;;;;;16.39;31.36;98284.84;5156001;27;20027;-69
2021/12/04 12:00:23;;;;;;;1.33;0.70;;;;;;;16.37;31.49;98286.84;5156277;27;20031;-68
2021/12/04 12:02:50;;;;;;;1.05;0.65;;;;;;;16.39;31.26;98286.66;5156234;27;20392;-69
2021/12/04 12:05:22;;;;;;;1.75;0.77;;;;;;;16.30;30.96;98300.13;5156860;27;20035;-69
2021/12/04 12:07:56;;;;;;;1.20;0.60;;;;;;;16.19;31.00;98297.94;5156288;27;20038;-68
2021/12/04 12:10:26;;;;;;;1.13;0.95;;;;;;;16.10;31.19;98313.22;5156368;27;20022;-68
2021/12/04 12:13:03;;;;;;;1.25;0.73;;;;;;;16.04;31.35;98305.97;5155742;27;20034;-68
2021/12/04 12:15:33;;;;;;;2.05;0.60;;;;;;;15.98;30.81;98301.38;5155772;27;20027;-67
2021/12/04 12:18:21;;;;;;;2.05;0.65;;;;;;;16.01;31.17;98309.03;5155900;27;20030;-68
2021/12/04 12:20:53;;;;;;;2.20;0.90;;;;;;;16.04;31.15;98305.97;5155737;27;20037;-68
2021/12/04 12:23:23;;;;;;;1.00;0.73;;;;;;;16.04;31.04;98307.81;5155652;27;20023;-68
2021/12/04 12:26:05;;;;;;;2.15;1.00;;;;;;;16.01;30.87;98306.34;5154615;27;20046;-69
2021/12/04 12:31:56;;;;;;;1.48;0.80;;;;;;;15.89;30.74;98327.31;5135651;27;20034;-68
2021/12/04 12:37:26;;;;;;;2.40;0.80;;;;;;;15.69;30.33;98329.69;5134602;27;20029;-70
2021/12/04 12:40:08;;;;;;;0.88;0.60;;;;;;;15.63;30.41;98333.09;5135024;27;20039;-68
2021/12/04 12:42:37;;;;;;;1.52;0.80;;;;;;;15.65;30.40;98347.09;5134565;27;20054;-69
2021/12/04 12:45:27;;;;;;;2.05;0.85;;;;;;;15.50;30.52;98320.41;5134933;27;20028;-68
2021/12/04 12:48:03;;;;;;;1.17;0.65;;;;;;;15.52;30.50;98339.72;5134714;27;20035;-68
2021/12/04 12:50:33;;;;;;;1.27;0.88;;;;;;;15.52;30.17;98339.72;5134711;27;20075;-68
2021/12/04 12:53:03;;;;;;;2.45;0.65;;;;;;;15.49;30.19;98345.41;5134190;27;20027;-68
2021/12/04 12:55:32;;;;;;;1.80;0.90;;;;;;;15.49;30.26;98342.75;5134411;27;20053;-68
2021/12/04 12:58:10;;;;;;;0.80;0.70;;;;;;;15.41;30.38;98343.66;5134977;27;20106;-68
2021/12/04 13:12:08;;;;;;;1.23;0.70;;;;;;;15.39;30.38;98359.84;5134248;27;20125;-68
2021/12/04 13:14:45;;;;;;;1.90;1.00;;;;;;;15.31;30.16;98348.41;5125799;27;20045;-68
2021/12/04 13:17:17;;;;;;;1.20;0.77;;;;;;;15.28;29.99;98368.28;5133735;27;20512;-68
2021/12/04 13:19:47;;;;;;;1.95;0.85;;;;;;;15.20;30.20;98371.84;5133902;27;20091;-68
2021/12/04 13:22:24;;;;;;;2.00;1.08;;;;;;;15.15;30.01;98382.19;5144832;27;20027;-69
2021/12/04 13:24:51;;;;;;;1.98;0.88;;;;;;;15.21;30.12;98385.97;5154813;27;20038;-69
2021/12/04 13:29:49;;;;;;;1.52;0.80;;;;;;;15.29;29.85;98380.59;5154842;27;20058;-69
2021/12/04 13:32:18;;;;;;;0.60;0.60;;;;;;;15.32;29.84;98396.19;5154613;27;20034;-68
2021/12/04 13:34:44;;;;;;;1.38;0.90;;;;;;;15.32;29.70;98393.53;5154679;27;20103;-68
2021/12/04 13:37:12;;;;;;;0.82;0.80;;;;;;;15.24;29.71;98398.94;5154376;27;20049;-68
2021/12/04 13:39:40;;;;;;;1.17;0.70;;;;;;;15.18;29.59;98396.97;5154681;27;20109;-68
2021/12/04 13:42:06;;;;;;;1.90;0.80;;;;;;;15.17;29.92;98409.50;5154418;27;20042;-69
2021/12/04 13:44:33;;;;;;;0.77;0.70;;;;;;;15.13;29.74;98402.84;5154386;27;20386;-68
2021/12/04 13:47:05;;;;;;;1.60;0.70;;;;;;;15.14;29.73;98407.19;5153732;27;20062;-69
2021/12/04 13:49:53;;;;;;;1.23;0.80;;;;;;;15.15;29.46;98390.19;5115025;28;20030;-69
2021/12/04 13:52:18;;;;;;;1.60;0.80;;;;;;;15.23;29.52;98411.41;5133659;27;20132;-68
2021/12/04 13:54:51;;;;;;;0.95;0.63;;;;;;;15.21;29.55;98417.94;5133301;27;20489;-68
2021/12/04 13:57:17;;;;;;;1.38;0.95;;;;;;;15.25;29.56;98405.94;5133387;27;20066;-68
2021/12/04 13:59:44;;;;;;;2.17;1.10;;;;;;;15.33;29.52;98407.69;5150793;27;20042;-69
2021/12/04 14:02:25;;;;;;;1.95;0.85;;;;;;;15.47;29.37;98420.25;5153933;27;20035;-69
2021/12/04 14:04:55;;;;;;;;;;;;;;;15.41;29.59;98423.63;5154577;27;20039;-69
2021/12/04 14:07:20;;;;;;;1.60;0.85;;;;;;;15.34;29.56;98425.34;5154511;27;19911;-69
2021/12/04 14:09:46;;;;;;;3.60;1.33;;;;;;;15.29;29.38;98431.22;5154424;27;20053;-69
2021/12/04 14:12:11;;;;;;;1.58;1.10;;;;;;;15.19;29.44;98431.47;5154600;27;20062;-69
2021/12/04 14:14:37;;;;;;;1.63;1.00;;;;;;;15.10;29.20;98424.50;5154347;27;20045;-69
2021/12/04 14:17:09;;;;;;;1.23;0.90;;;;;;;15.10;29.30;98425.34;5153871;27;20038;-69
2021/12/04 14:19:35;;;;;;;1.85;1.20;;;;;;;15.05;29.11;98411.72;5153895;27;20042;-69
2021/12/04 14:22:01;;;;;;;1.17;0.93;;;;;;;15.13;29.33;98445.47;5153994;27;20038;-69
2021/12/04 14:24:43;;;;;;;1.55;0.93;;;;;;;15.13;29.45;98434.00;5153829;27;20485;-69
2021/12/04 14:27:11;;;;;;;1.95;0.90;;;;;;;15.13;29.36;98448.16;5153976;27;20027;-69
2021/12/04 14:29:42;;;;;;;1.83;0.90;;;;;;;15.15;29.36;98446.13;5154033;27;20038;-69
2021/12/04 14:32:10;;;;;;;1.27;0.83;;;;;;;15.18;29.24;98456.44;5153680;27;20044;-69
2021/12/04 14:34:36;;;;;;;1.52;1.00;;;;;;;15.18;29.46;98456.44;5153766;27;20031;-69
2021/12/04 14:37:12;;;;;;;3.60;0.80;;;;;;;15.19;29.43;98451.94;5153664;27;20383;-69
2021/12/04 14:39:44;;;;;;;0.90;0.60;;;;;;;15.20;29.30;98454.44;5157371;27;20109;-69